sensor_id;sensor_type;location;lat;lon;timestamp;pressure;altitude;pressure_sealevel;temperature;humidity
66381;BME280;53177;52.648;1.214;2023-01-31T00:01:28;102049.91;;;2.52;90.44
66381;BME280;53177;52.648;1.214;2023-01-31T00:03:56;102059.53;;;2.53;90.30
66381;BME280;53177;52.648;1.214;2023-01-31T00:06:28;102056.84;;;2.50;90.76
66381;BME280;53177;52.648;1.214;2023-01-31T00:08:54;102056.19;;;2.57;90.52
66381;BME280;53177;52.648;1.214;2023-01-31T00:11:22;102056.69;;;2.45;90.56
66381;BME280;53177;52.648;1.214;2023-01-31T00:13:48;102048.84;;;2.45;90.70
66381;BME280;53177;52.648;1.214;2023-01-31T00:16:15;102039.22;;;2.43;90.42
66381;BME280;53177;52.648;1.214;2023-01-31T00:18:40;102034.03;;;2.44;90.23
66381;BME280;53177;52.648;1.214;2023-01-31T00:21:09;102019.31;;;2.47;90.25
66381;BME280;53177;52.648;1.214;2023-01-31T00:23:35;102009.50;;;2.39;90.35
66381;BME280;53177;52.648;1.214;2023-01-31T00:26:10;102011.25;;;2.39;90.36
66381;BME280;53177;52.648;1.214;2023-01-31T00:28:37;102017.34;;;2.39;90.05
66381;BME280;53177;52.648;1.214;2023-01-31T00:31:03;102024.28;;;2.39;90.27
66381;BME280;53177;52.648;1.214;2023-01-31T00:33:28;102018.84;;;2.33;90.46
66381;BME280;53177;52.648;1.214;2023-01-31T00:35:54;102023.25;;;2.34;89.72
66381;BME280;53177;52.648;1.214;2023-01-31T00:38:19;102007.56;;;2.32;90.46
66381;BME280;53177;52.648;1.214;2023-01-31T00:40:52;102004.28;;;2.39;89.96
66381;BME280;53177;52.648;1.214;2023-01-31T00:43:18;101998.22;;;2.40;89.60
66381;BME280;53177;52.648;1.214;2023-01-31T00:45:43;101989.38;;;2.35;90.34
66381;BME280;53177;52.648;1.214;2023-01-31T00:48:10;101977.97;;;2.33;90.16
66381;BME280;53177;52.648;1.214;2023-01-31T00:50:35;101963.19;;;2.32;90.23
66381;BME280;53177;52.648;1.214;2023-01-31T00:53:01;101965.81;;;2.34;90.24
66381;BME280;53177;52.648;1.214;2023-01-31T00:55:27;101960.75;;;2.38;90.40
66381;BME280;53177;52.648;1.214;2023-01-31T00:57:52;101964.41;;;2.43;90.20
66381;BME280;53177;52.648;1.214;2023-01-31T01:00:19;101967.19;;;2.50;90.38
66381;BME280;53177;52.648;1.214;2023-01-31T01:02:44;101949.81;;;2.50;89.91
66381;BME280;53177;52.648;1.214;2023-01-31T01:05:10;101960.91;;;2.43;90.17
66381;BME280;53177;52.648;1.214;2023-01-31T01:07:35;101946.78;;;2.36;90.66
66381;BME280;53177;52.648;1.214;2023-01-31T01:10:01;101933.84;;;2.41;90.67
66381;BME280;53177;52.648;1.214;2023-01-31T01:12:27;101944.25;;;2.39;90.53
66381;BME280;53177;52.648;1.214;2023-01-31T01:14:52;101940.00;;;2.43;90.58
66381;BME280;53177;52.648;1.214;2023-01-31T01:17:18;101931.44;;;2.47;90.51
66381;BME280;53177;52.648;1.214;2023-01-31T01:19:43;101929.72;;;2.48;90.91
66381;BME280;53177;52.648;1.214;2023-01-31T01:22:08;101921.88;;;2.48;91.07
66381;BME280;53177;52.648;1.214;2023-01-31T01:24:34;101921.09;;;2.52;90.91
66381;BME280;53177;52.648;1.214;2023-01-31T01:26:59;101916.78;;;2.52;90.86
66381;BME280;53177;52.648;1.214;2023-01-31T01:29:25;101913.34;;;2.53;91.06
66381;BME280;53177;52.648;1.214;2023-01-31T01:31:50;101909.91;;;2.56;91.15
66381;BME280;53177;52.648;1.214;2023-01-31T01:34:16;101898.50;;;2.52;90.97
66381;BME280;53177;52.648;1.214;2023-01-31T01:36:42;101902.13;;;2.57;91.20
66381;BME280;53177;52.648;1.214;2023-01-31T01:39:09;101898.19;;;2.71;90.90
66381;BME280;53177;52.648;1.214;2023-01-31T01:41:36;101895.63;;;2.73;90.83
66381;BME280;53177;52.648;1.214;2023-01-31T01:44:39;101897.50;;;2.78;90.73
66381;BME280;53177;52.648;1.214;2023-01-31T01:46:49;101894.97;;;2.80;90.75
66381;BME280;53177;52.648;1.214;2023-01-31T01:51:48;101895.16;;;2.87;91.02
66381;BME280;53177;52.648;1.214;2023-01-31T01:57:02;101885.91;;;2.99;90.23
66381;BME280;53177;52.648;1.214;2023-01-31T01:59:35;101888.59;;;3.03;90.57
66381;BME280;53177;52.648;1.214;2023-01-31T02:02:02;101885.22;;;3.07;90.15
66381;BME280;53177;52.648;1.214;2023-01-31T02:04:33;101882.06;;;3.19;89.91
66381;BME280;53177;52.648;1.214;2023-01-31T02:07:00;101896.97;;;3.21;89.72
66381;BME280;53177;52.648;1.214;2023-01-31T02:11:55;101897.13;;;3.29;89.31
66381;BME280;53177;52.648;1.214;2023-01-31T02:14:21;101895.38;;;3.28;89.69
66381;BME280;53177;52.648;1.214;2023-01-31T02:16:46;101895.44;;;3.31;89.98
66381;BME280;53177;52.648;1.214;2023-01-31T02:19:32;101889.47;;;3.35;89.36
66381;BME280;53177;52.648;1.214;2023-01-31T02:28:10;101870.41;;;3.40;89.53
66381;BME280;53177;52.648;1.214;2023-01-31T02:39:34;101867.38;;;3.58;89.39
66381;BME280;53177;52.648;1.214;2023-01-31T02:45:08;101863.19;;;3.66;89.64
66381;BME280;53177;52.648;1.214;2023-01-31T02:50:43;101847.19;;;3.90;88.78
66381;BME280;53177;52.648;1.214;2023-01-31T02:55:58;101830.09;;;4.06;88.57
66381;BME280;53177;52.648;1.214;2023-01-31T02:58:57;101835.34;;;4.07;88.14
66381;BME280;53177;52.648;1.214;2023-01-31T03:01:27;101827.50;;;4.07;88.36
66381;BME280;53177;52.648;1.214;2023-01-31T03:03:57;101818.13;;;4.17;87.84
66381;BME280;53177;52.648;1.214;2023-01-31T03:11:21;101805.41;;;4.35;86.49
66381;BME280;53177;52.648;1.214;2023-01-31T03:14:04;101809.75;;;4.34;86.95
66381;BME280;53177;52.648;1.214;2023-01-31T03:16:57;101800.28;;;4.41;85.85
66381;BME280;53177;52.648;1.214;2023-01-31T03:19:57;101797.69;;;4.43;85.74
66381;BME280;53177;52.648;1.214;2023-01-31T03:22:28;101795.97;;;4.43;85.74
66381;BME280;53177;52.648;1.214;2023-01-31T03:24:55;101793.38;;;4.45;85.17
66381;BME280;53177;52.648;1.214;2023-01-31T03:27:22;101789.94;;;4.47;84.85
66381;BME280;53177;52.648;1.214;2023-01-31T03:29:49;101787.34;;;4.49;85.28
66381;BME280;53177;52.648;1.214;2023-01-31T03:34:47;101769.94;;;4.51;85.14
66381;BME280;53177;52.648;1.214;2023-01-31T03:37:36;101760.31;;;4.51;85.16
66381;BME280;53177;52.648;1.214;2023-01-31T03:40:11;101745.47;;;4.52;85.05
66381;BME280;53177;52.648;1.214;2023-01-31T03:47:41;101744.81;;;4.62;84.80
66381;BME280;53177;52.648;1.214;2023-01-31T03:50:22;101731.63;;;4.57;85.36
66381;BME280;53177;52.648;1.214;2023-01-31T03:52:55;101738.59;;;4.58;85.16
66381;BME280;53177;52.648;1.214;2023-01-31T03:55:47;101720.28;;;4.58;85.40
66381;BME280;53177;52.648;1.214;2023-01-31T03:58:16;101730.88;;;4.64;84.91
66381;BME280;53177;52.648;1.214;2023-01-31T04:00:45;101715.97;;;4.60;85.05
66381;BME280;53177;52.648;1.214;2023-01-31T04:03:20;101724.72;;;4.61;85.09
66381;BME280;53177;52.648;1.214;2023-01-31T04:05:48;101714.19;;;4.58;85.32
66381;BME280;53177;52.648;1.214;2023-01-31T04:08:15;101716.00;;;4.62;85.14
66381;BME280;53177;52.648;1.214;2023-01-31T04:10:40;101717.72;;;4.61;85.48
66381;BME280;53177;52.648;1.214;2023-01-31T04:13:06;101716.06;;;4.65;85.51
66381;BME280;53177;52.648;1.214;2023-01-31T04:15:32;101719.47;;;4.61;85.41
66381;BME280;53177;52.648;1.214;2023-01-31T04:17:57;101705.53;;;4.62;85.47
66381;BME280;53177;52.648;1.214;2023-01-31T04:20:24;101702.03;;;4.63;86.04
66381;BME280;53177;52.648;1.214;2023-01-31T04:22:50;101699.44;;;4.64;85.80
66381;BME280;53177;52.648;1.214;2023-01-31T04:25:15;101697.75;;;4.68;85.46
66381;BME280;53177;52.648;1.214;2023-01-31T04:27:41;101692.47;;;4.66;85.39
66381;BME280;53177;52.648;1.214;2023-01-31T04:30:07;101692.47;;;4.66;85.53
66381;BME280;53177;52.648;1.214;2023-01-31T04:32:33;101686.47;;;4.72;85.85
66381;BME280;53177;52.648;1.214;2023-01-31T04:34:58;101689.06;;;4.70;85.86
66381;BME280;53177;52.648;1.214;2023-01-31T04:37:24;101684.63;;;4.66;86.07
66381;BME280;53177;52.648;1.214;2023-01-31T04:39:49;101678.50;;;4.64;86.32
66381;BME280;53177;52.648;1.214;2023-01-31T04:42:15;101674.09;;;4.63;86.34
66381;BME280;53177;52.648;1.214;2023-01-31T04:44:40;101683.69;;;4.61;86.79
66381;BME280;53177;52.648;1.214;2023-01-31T04:47:06;101677.56;;;4.61;86.73
66381;BME280;53177;52.648;1.214;2023-01-31T04:49:31;101676.59;;;4.56;87.17
66381;BME280;53177;52.648;1.214;2023-01-31T04:51:56;101681.78;;;4.53;87.06
66381;BME280;53177;52.648;1.214;2023-01-31T04:54:22;101690.47;;;4.52;87.47
66381;BME280;53177;52.648;1.214;2023-01-31T04:56:47;101683.50;;;4.51;87.24
66381;BME280;53177;52.648;1.214;2023-01-31T04:59:13;101685.16;;;4.46;87.70
66381;BME280;53177;52.648;1.214;2023-01-31T05:01:38;101695.53;;;4.41;87.93
66381;BME280;53177;52.648;1.214;2023-01-31T05:04:06;101690.44;;;4.47;87.44
66381;BME280;53177;52.648;1.214;2023-01-31T05:06:32;101687.69;;;4.41;88.11
66381;BME280;53177;52.648;1.214;2023-01-31T05:08:57;101694.59;;;4.36;88.13
66381;BME280;53177;52.648;1.214;2023-01-31T05:11:26;101686.75;;;4.37;87.59
66381;BME280;53177;52.648;1.214;2023-01-31T05:13:51;101701.56;;;4.35;88.46
66381;BME280;53177;52.648;1.214;2023-01-31T05:16:17;101693.81;;;4.41;88.50
66381;BME280;53177;52.648;1.214;2023-01-31T05:18:42;101683.38;;;4.43;88.41
66381;BME280;53177;52.648;1.214;2023-01-31T05:21:09;101689.53;;;4.47;88.75
66381;BME280;53177;52.648;1.214;2023-01-31T05:23:34;101678.28;;;4.52;88.66
66381;BME280;53177;52.648;1.214;2023-01-31T05:26:00;101679.13;;;4.51;88.34
66381;BME280;53177;52.648;1.214;2023-01-31T05:28:25;101691.38;;;4.51;88.61
66381;BME280;53177;52.648;1.214;2023-01-31T05:30:52;101693.03;;;4.47;88.86
66381;BME280;53177;52.648;1.214;2023-01-31T05:33:17;101699.13;;;4.48;88.92
66381;BME280;53177;52.648;1.214;2023-01-31T05:35:46;101698.47;;;4.58;88.61
66381;BME280;53177;52.648;1.214;2023-01-31T05:38:11;101699.41;;;4.63;88.64
66381;BME280;53177;52.648;1.214;2023-01-31T05:40:36;101710.00;;;4.69;88.57
66381;BME280;53177;52.648;1.214;2023-01-31T05:43:02;101714.38;;;4.68;88.79
66381;BME280;53177;52.648;1.214;2023-01-31T05:45:28;101700.47;;;4.72;88.87
66381;BME280;53177;52.648;1.214;2023-01-31T05:47:55;101701.25;;;4.68;88.87
66381;BME280;53177;52.648;1.214;2023-01-31T05:50:22;101700.47;;;4.72;89.07
66381;BME280;53177;52.648;1.214;2023-01-31T05:52:52;101688.22;;;4.71;89.07
66381;BME280;53177;52.648;1.214;2023-01-31T05:55:18;101680.31;;;4.68;89.13
66381;BME280;53177;52.648;1.214;2023-01-31T05:57:44;101672.41;;;4.67;89.34
66381;BME280;53177;52.648;1.214;2023-01-31T06:00:10;101663.63;;;4.62;89.34
66381;BME280;53177;52.648;1.214;2023-01-31T06:02:36;101663.53;;;4.59;89.54
66381;BME280;53177;52.648;1.214;2023-01-31T06:05:02;101653.00;;;4.54;89.53
66381;BME280;53177;52.648;1.214;2023-01-31T06:07:27;101659.84;;;4.46;89.60
66381;BME280;53177;52.648;1.214;2023-01-31T06:09:53;101656.34;;;4.46;89.69
66381;BME280;53177;52.648;1.214;2023-01-31T06:12:18;101661.50;;;4.39;89.90
66381;BME280;53177;52.648;1.214;2023-01-31T06:14:44;101655.41;;;4.43;89.98
66381;BME280;53177;52.648;1.214;2023-01-31T06:17:10;101651.94;;;4.43;90.34
66381;BME280;53177;52.648;1.214;2023-01-31T06:19:36;101637.03;;;4.39;90.25
66381;BME280;53177;52.648;1.214;2023-01-31T06:22:03;101651.16;;;4.47;90.18
66381;BME280;53177;52.648;1.214;2023-01-31T06:24:29;101650.31;;;4.50;89.67
66381;BME280;53177;52.648;1.214;2023-01-31T06:26:54;101648.44;;;4.44;90.63
66381;BME280;53177;52.648;1.214;2023-01-31T06:29:20;101650.25;;;4.48;90.27
66381;BME280;53177;52.648;1.214;2023-01-31T06:31:45;101637.16;;;4.47;90.33
66381;BME280;53177;52.648;1.214;2023-01-31T06:34:10;101636.38;;;4.51;90.28
66381;BME280;53177;52.648;1.214;2023-01-31T06:36:36;101633.66;;;4.46;90.71
66381;BME280;53177;52.648;1.214;2023-01-31T06:39:02;101623.22;;;4.49;90.75
66381;BME280;53177;52.648;1.214;2023-01-31T06:41:28;101611.81;;;4.46;91.16
66381;BME280;53177;52.648;1.214;2023-01-31T06:43:54;101621.59;;;4.56;90.73
66381;BME280;53177;52.648;1.214;2023-01-31T06:46:20;101625.06;;;4.55;90.58
66381;BME280;53177;52.648;1.214;2023-01-31T06:48:46;101629.31;;;4.47;90.90
66381;BME280;53177;52.648;1.214;2023-01-31T06:51:13;101627.66;;;4.53;91.40
66381;BME280;53177;52.648;1.214;2023-01-31T06:53:39;101629.47;;;4.57;91.06
66381;BME280;53177;52.648;1.214;2023-01-31T06:56:04;101631.19;;;4.55;90.95
66381;BME280;53177;52.648;1.214;2023-01-31T06:58:30;101627.66;;;4.53;91.11
66381;BME280;53177;52.648;1.214;2023-01-31T07:01:03;101618.09;;;4.55;91.09
66381;BME280;53177;52.648;1.214;2023-01-31T07:03:29;101618.97;;;4.56;91.46
66381;BME280;53177;52.648;1.214;2023-01-31T07:05:54;101613.78;;;4.59;91.44
66381;BME280;53177;52.648;1.214;2023-01-31T07:08:21;101623.38;;;4.58;91.04
66381;BME280;53177;52.648;1.214;2023-01-31T07:10:49;101632.91;;;4.53;91.91
66381;BME280;53177;52.648;1.214;2023-01-31T07:13:17;101625.97;;;4.57;91.46
66381;BME280;53177;52.648;1.214;2023-01-31T07:15:46;101627.75;;;4.59;91.33
66381;BME280;53177;52.648;1.214;2023-01-31T07:18:13;101626.94;;;4.62;91.75
66381;BME280;53177;52.648;1.214;2023-01-31T07:20:40;101633.13;;;4.67;91.75
66381;BME280;53177;52.648;1.214;2023-01-31T07:23:06;101624.66;;;4.83;91.52
66381;BME280;53177;52.648;1.214;2023-01-31T07:25:34;101645.56;;;4.81;91.92
66381;BME280;53177;52.648;1.214;2023-01-31T07:28:01;101629.97;;;4.87;92.06
66381;BME280;53177;52.648;1.214;2023-01-31T07:30:28;101604.69;;;4.93;91.52
66381;BME280;53177;52.648;1.214;2023-01-31T07:32:54;101588.88;;;4.88;91.96
66381;BME280;53177;52.648;1.214;2023-01-31T07:35:20;101595.91;;;4.89;91.93
66381;BME280;53177;52.648;1.214;2023-01-31T07:37:46;101595.94;;;4.92;92.23
66381;BME280;53177;52.648;1.214;2023-01-31T07:40:14;101592.47;;;4.93;92.39
66381;BME280;53177;52.648;1.214;2023-01-31T07:42:40;101595.94;;;4.92;91.80
66381;BME280;53177;52.648;1.214;2023-01-31T07:45:07;101592.44;;;4.90;91.97
66381;BME280;53177;52.648;1.214;2023-01-31T07:47:33;101584.53;;;4.88;91.99
66381;BME280;53177;52.648;1.214;2023-01-31T07:49:59;101597.75;;;4.95;92.66
66381;BME280;53177;52.648;1.214;2023-01-31T07:52:24;101603.88;;;4.95;92.39
66381;BME280;53177;52.648;1.214;2023-01-31T07:54:50;101598.63;;;4.97;92.09
66381;BME280;53177;52.648;1.214;2023-01-31T07:57:15;101603.03;;;4.98;91.93
66381;BME280;53177;52.648;1.214;2023-01-31T07:59:42;101595.22;;;5.04;91.90
66381;BME280;53177;52.648;1.214;2023-01-31T08:02:13;101609.25;;;5.07;92.48
66381;BME280;53177;52.648;1.214;2023-01-31T08:04:58;101613.69;;;5.11;92.74
66381;BME280;53177;52.648;1.214;2023-01-31T08:07:24;101604.16;;;5.16;92.40
66381;BME280;53177;52.648;1.214;2023-01-31T08:09:49;101599.81;;;5.18;92.25
66381;BME280;53177;52.648;1.214;2023-01-31T08:12:15;101586.63;;;5.14;92.25
66381;BME280;53177;52.648;1.214;2023-01-31T08:14:41;101584.00;;;5.12;92.64
66381;BME280;53177;52.648;1.214;2023-01-31T08:17:07;101586.66;;;5.15;92.03
66381;BME280;53177;52.648;1.214;2023-01-31T08:19:33;101574.47;;;5.17;91.87
66381;BME280;53177;52.648;1.214;2023-01-31T08:21:59;101575.34;;;5.19;92.54
66381;BME280;53177;52.648;1.214;2023-01-31T08:24:25;101578.88;;;5.20;92.92
66381;BME280;53177;52.648;1.214;2023-01-31T08:26:50;101568.34;;;5.17;92.55
66381;BME280;53177;52.648;1.214;2023-01-31T08:29:16;101568.50;;;5.30;92.44
66381;BME280;53177;52.648;1.214;2023-01-31T08:31:41;101564.00;;;5.22;92.59
66381;BME280;53177;52.648;1.214;2023-01-31T08:34:07;101564.97;;;5.27;92.70
66381;BME280;53177;52.648;1.214;2023-01-31T08:36:32;101573.66;;;5.23;92.29
66381;BME280;53177;52.648;1.214;2023-01-31T08:39:00;101584.22;;;5.29;92.89
66381;BME280;53177;52.648;1.214;2023-01-31T08:41:27;101573.72;;;5.27;92.73
66381;BME280;53177;52.648;1.214;2023-01-31T08:43:53;101565.81;;;5.26;93.29
66381;BME280;53177;52.648;1.214;2023-01-31T08:46:21;101581.59;;;5.29;92.71
66381;BME280;53177;52.648;1.214;2023-01-31T08:48:47;101579.03;;;5.32;92.89
66381;BME280;53177;52.648;1.214;2023-01-31T08:51:15;101575.50;;;5.30;92.99
66381;BME280;53177;52.648;1.214;2023-01-31T08:53:42;101572.03;;;5.34;93.25
66381;BME280;53177;52.648;1.214;2023-01-31T08:56:09;101565.06;;;5.34;93.44
66381;BME280;53177;52.648;1.214;2023-01-31T08:58:37;101561.59;;;5.35;93.51
66381;BME280;53177;52.648;1.214;2023-01-31T09:01:05;101565.06;;;5.36;93.35
66381;BME280;53177;52.648;1.214;2023-01-31T09:03:31;101558.13;;;5.41;93.63
66381;BME280;53177;52.648;1.214;2023-01-31T09:06:00;101564.31;;;5.43;93.16
66381;BME280;53177;52.648;1.214;2023-01-31T09:08:26;101569.53;;;5.43;93.46
66381;BME280;53177;52.648;1.214;2023-01-31T09:10:52;101567.78;;;5.44;93.23
66381;BME280;53177;52.648;1.214;2023-01-31T09:13:18;101560.00;;;5.50;93.51
66381;BME280;53177;52.648;1.214;2023-01-31T09:15:44;101567.03;;;5.54;93.85
66381;BME280;53177;52.648;1.214;2023-01-31T09:18:09;101563.59;;;5.59;93.39
66381;BME280;53177;52.648;1.214;2023-01-31T09:20:35;101568.78;;;5.55;93.60
66381;BME280;53177;52.648;1.214;2023-01-31T09:23:00;101556.53;;;5.55;93.91
66381;BME280;53177;52.648;1.214;2023-01-31T09:25:26;101573.19;;;5.54;93.99
66381;BME280;53177;52.648;1.214;2023-01-31T09:27:52;101583.69;;;5.59;93.66
66381;BME280;53177;52.648;1.214;2023-01-31T09:30:19;101574.06;;;5.56;93.99
66381;BME280;53177;52.648;1.214;2023-01-31T09:32:45;101574.13;;;5.61;93.85
66381;BME280;53177;52.648;1.214;2023-01-31T09:35:11;101577.72;;;5.70;93.93
66381;BME280;53177;52.648;1.214;2023-01-31T09:37:37;101569.16;;;5.88;93.85
66381;BME280;53177;52.648;1.214;2023-01-31T09:40:04;101565.88;;;6.10;93.22
66381;BME280;53177;52.648;1.214;2023-01-31T09:42:41;101576.56;;;6.27;92.51
66381;BME280;53177;52.648;1.214;2023-01-31T09:45:14;101596.84;;;6.45;92.07
66381;BME280;53177;52.648;1.214;2023-01-31T09:47:53;101600.44;;;6.59;91.62
66381;BME280;53177;52.648;1.214;2023-01-31T09:50:23;101614.63;;;6.80;91.30
66381;BME280;53177;52.648;1.214;2023-01-31T09:52:51;101618.13;;;6.81;90.66
66381;BME280;53177;52.648;1.214;2023-01-31T09:57:57;101621.53;;;6.65;91.44
66381;BME280;53177;52.648;1.214;2023-01-31T10:00:31;101628.53;;;6.61;91.51
66381;BME280;53177;52.648;1.214;2023-01-31T10:03:17;101620.88;;;6.99;90.78
66381;BME280;53177;52.648;1.214;2023-01-31T10:06:15;101617.53;;;7.26;89.67
66381;BME280;53177;52.648;1.214;2023-01-31T10:11:46;101615.88;;;7.51;88.94
66381;BME280;53177;52.648;1.214;2023-01-31T10:16:43;101626.28;;;7.25;88.97
66381;BME280;53177;52.648;1.214;2023-01-31T10:19:17;101617.47;;;7.15;89.37
66381;BME280;53177;52.648;1.214;2023-01-31T10:21:49;101615.72;;;7.11;90.06
66381;BME280;53177;52.648;1.214;2023-01-31T10:24:26;101617.47;;;7.15;89.64
66381;BME280;53177;52.648;1.214;2023-01-31T10:26:57;101617.47;;;7.09;90.01
66381;BME280;53177;52.648;1.214;2023-01-31T10:29:33;101608.69;;;7.13;90.28
66381;BME280;53177;52.648;1.214;2023-01-31T10:32:03;101592.06;;;7.13;90.18
66381;BME280;53177;52.648;1.214;2023-01-31T10:34:42;101608.72;;;7.16;90.63
66381;BME280;53177;52.648;1.214;2023-01-31T10:37:13;101607.84;;;7.19;90.58
66381;BME280;53177;52.648;1.214;2023-01-31T10:39:53;101607.91;;;7.23;90.05
66381;BME280;53177;52.648;1.214;2023-01-31T10:47:35;101593.84;;;7.24;90.71
66381;BME280;53177;52.648;1.214;2023-01-31T10:50:12;101593.88;;;7.29;90.58
66381;BME280;53177;52.648;1.214;2023-01-31T10:52:48;101596.53;;;7.37;90.69
66381;BME280;53177;52.648;1.214;2023-01-31T10:58:01;101617.66;;;7.52;90.26
66381;BME280;53177;52.648;1.214;2023-01-31T11:00:31;101623.84;;;7.57;90.38
66381;BME280;53177;52.648;1.214;2023-01-31T11:02:58;101616.78;;;7.53;90.38
66381;BME280;53177;52.648;1.214;2023-01-31T11:05:26;101623.81;;;7.55;90.06
66381;BME280;53177;52.648;1.214;2023-01-31T11:07:55;101626.50;;;7.67;90.08
66381;BME280;53177;52.648;1.214;2023-01-31T11:10:30;101623.91;;;7.81;89.22
66381;BME280;53177;52.648;1.214;2023-01-31T11:12:58;101616.09;;;8.05;88.86
66381;BME280;53177;52.648;1.214;2023-01-31T11:15:28;101613.44;;;8.08;88.54
66381;BME280;53177;52.648;1.214;2023-01-31T11:17:58;101612.56;;;8.05;88.67
66381;BME280;53177;52.648;1.214;2023-01-31T11:20:46;101598.50;;;7.97;88.60
66381;BME280;53177;52.648;1.214;2023-01-31T11:23:18;101583.59;;;8.11;88.48
66381;BME280;53177;52.648;1.214;2023-01-31T11:25:48;101586.28;;;8.41;88.17
66381;BME280;53177;52.648;1.214;2023-01-31T11:28:22;101586.28;;;8.53;85.95
66381;BME280;53177;52.648;1.214;2023-01-31T11:30:51;101581.88;;;8.73;85.76
66381;BME280;53177;52.648;1.214;2023-01-31T11:33:39;101595.00;;;8.96;84.95
66381;BME280;53177;52.648;1.214;2023-01-31T11:36:11;101587.97;;;9.03;84.63
66381;BME280;53177;52.648;1.214;2023-01-31T11:38:37;101582.69;;;9.04;83.80
66381;BME280;53177;52.648;1.214;2023-01-31T11:41:26;101575.59;;;9.23;83.49
66381;BME280;53177;52.648;1.214;2023-01-31T11:44:06;101580.84;;;9.34;82.80
66381;BME280;53177;52.648;1.214;2023-01-31T11:46:42;101585.13;;;9.56;82.48
66381;BME280;53177;52.648;1.214;2023-01-31T11:49:32;101574.59;;;9.50;82.03
66381;BME280;53177;52.648;1.214;2023-01-31T11:52:10;101579.84;;;9.57;81.52
66381;BME280;53177;52.648;1.214;2023-01-31T11:54:36;101590.41;;;9.54;81.82
66381;BME280;53177;52.648;1.214;2023-01-31T11:57:01;101577.19;;;9.63;81.15
66381;BME280;53177;52.648;1.214;2023-01-31T11:59:37;101586.84;;;9.67;80.57
66381;BME280;53177;52.648;1.214;2023-01-31T12:02:03;101586.78;;;9.78;79.75
66381;BME280;53177;52.648;1.214;2023-01-31T12:04:33;101592.16;;;9.64;79.18
66381;BME280;53177;52.648;1.214;2023-01-31T12:07:19;101592.06;;;9.83;78.64
66381;BME280;53177;52.648;1.214;2023-01-31T12:09:45;101592.00;;;9.87;77.83
66381;BME280;53177;52.648;1.214;2023-01-31T12:14:49;101588.50;;;9.84;77.35
66381;BME280;53177;52.648;1.214;2023-01-31T12:17:16;101595.56;;;9.86;76.55
66381;BME280;53177;52.648;1.214;2023-01-31T12:19:56;101593.72;;;9.96;77.08
66381;BME280;53177;52.648;1.214;2023-01-31T12:22:30;101577.78;;;10.12;76.18
66381;BME280;53177;52.648;1.214;2023-01-31T12:25:25;101575.91;;;10.28;75.38
66381;BME280;53177;52.648;1.214;2023-01-31T12:31:17;101596.09;;;10.41;71.60
66381;BME280;53177;52.648;1.214;2023-01-31T12:42:36;101602.59;;;9.84;67.54
66381;BME280;53177;52.648;1.214;2023-01-31T12:48:25;101592.09;;;9.73;65.79
66381;BME280;53177;52.648;1.214;2023-01-31T12:51:04;101591.19;;;9.73;66.73
66381;BME280;53177;52.648;1.214;2023-01-31T13:04:38;101601.84;;;9.59;65.62
66381;BME280;53177;52.648;1.214;2023-01-31T13:10:29;101608.00;;;9.60;66.55
66381;BME280;53177;52.648;1.214;2023-01-31T13:12:56;101608.91;;;9.56;65.52
66381;BME280;53177;52.648;1.214;2023-01-31T13:15:42;101614.13;;;9.66;66.60
66381;BME280;53177;52.648;1.214;2023-01-31T13:18:09;101595.66;;;9.63;66.22
66381;BME280;53177;52.648;1.214;2023-01-31T13:20:43;101609.75;;;9.64;66.23
66381;BME280;53177;52.648;1.214;2023-01-31T13:23:18;101595.59;;;9.75;66.67
66381;BME280;53177;52.648;1.214;2023-01-31T13:26:24;101596.47;;;9.76;66.66
66381;BME280;53177;52.648;1.214;2023-01-31T13:32:19;101611.53;;;9.59;65.55
66381;BME280;53177;52.648;1.214;2023-01-31T13:34:51;101609.78;;;9.55;67.50
66381;BME280;53177;52.648;1.214;2023-01-31T13:37:20;101608.09;;;9.42;65.79
66381;BME280;53177;52.648;1.214;2023-01-31T13:40:00;101609.00;;;9.30;66.71
66381;BME280;53177;52.648;1.214;2023-01-31T13:42:28;101619.56;;;9.27;67.36
66381;BME280;53177;52.648;1.214;2023-01-31T13:44:54;101627.50;;;9.22;67.28
66381;BME280;53177;52.648;1.214;2023-01-31T13:47:29;101630.16;;;9.19;67.43
66381;BME280;53177;52.648;1.214;2023-01-31T13:50:02;101631.00;;;9.21;67.79
66381;BME280;53177;52.648;1.214;2023-01-31T13:52:33;101642.44;;;9.29;68.06
66381;BME280;53177;52.648;1.214;2023-01-31T13:55:17;101638.00;;;9.42;67.48
66381;BME280;53177;52.648;1.214;2023-01-31T13:58:05;101637.94;;;9.54;67.36
66381;BME280;53177;52.648;1.214;2023-01-31T14:00:40;101639.72;;;9.55;66.63
66381;BME280;53177;52.648;1.214;2023-01-31T14:03:13;101630.06;;;9.48;66.44
66381;BME280;53177;52.648;1.214;2023-01-31T14:13:45;101664.38;;;9.47;60.67
66381;BME280;53177;52.648;1.214;2023-01-31T14:19:00;101660.00;;;9.46;61.96
66381;BME280;53177;52.648;1.214;2023-01-31T14:23:55;101670.63;;;9.08;61.60
66381;BME280;53177;52.648;1.214;2023-01-31T14:29:11;101677.66;;;9.06;62.86
66381;BME280;53177;52.648;1.214;2023-01-31T14:31:39;101692.63;;;8.93;62.92
66381;BME280;53177;52.648;1.214;2023-01-31T14:34:17;101692.63;;;8.93;63.65
66381;BME280;53177;52.648;1.214;2023-01-31T14:37:00;101690.00;;;8.98;63.55
66381;BME280;53177;52.648;1.214;2023-01-31T14:56:19;101714.59;;;8.74;62.62
66381;BME280;53177;52.648;1.214;2023-01-31T14:58:48;101704.91;;;8.84;61.37
66381;BME280;53177;52.648;1.214;2023-01-31T15:01:17;101702.28;;;8.84;61.02
66381;BME280;53177;52.648;1.214;2023-01-31T15:03:48;101688.22;;;8.78;62.21
66381;BME280;53177;52.648;1.214;2023-01-31T15:06:22;101682.09;;;8.75;62.47
66381;BME280;53177;52.648;1.214;2023-01-31T15:08:49;101681.19;;;8.71;61.99
66381;BME280;53177;52.648;1.214;2023-01-31T15:11:39;101679.44;;;8.66;62.98
66381;BME280;53177;52.648;1.214;2023-01-31T15:19:59;101690.84;;;8.85;64.24
66381;BME280;53177;52.648;1.214;2023-01-31T15:22:29;101684.69;;;8.79;63.30
66381;BME280;53177;52.648;1.214;2023-01-31T15:24:55;101680.31;;;8.75;63.80
66381;BME280;53177;52.648;1.214;2023-01-31T15:27:39;101691.72;;;8.73;64.31